createdAt,value
2023-04-11T00:01:23.395Z,13.40
2023-04-11T00:03:50.654Z,13.40
2023-04-11T00:06:19.439Z,13.20
2023-04-11T00:08:48.383Z,13.30
2023-04-11T00:11:15.983Z,13.40
2023-04-11T00:13:43.381Z,13.30
2023-04-11T00:16:11.288Z,13.40
2023-04-11T00:18:39.327Z,13.40
2023-04-11T00:21:08.736Z,13.40
2023-04-11T00:23:37.117Z,13.40
2023-04-11T00:26:04.801Z,13.30
2023-04-11T00:28:31.793Z,13.10
2023-04-11T00:30:58.922Z,13.20
2023-04-11T00:33:26.625Z,13.10
2023-04-11T00:35:53.644Z,13.00
2023-04-11T00:38:20.794Z,12.90
2023-04-11T00:40:49.049Z,12.90
2023-04-11T00:43:15.978Z,12.80
2023-04-11T00:45:43.520Z,12.80
2023-04-11T00:48:11.014Z,12.90
2023-04-11T00:50:42.773Z,12.80
2023-04-11T00:53:12.716Z,12.80
2023-04-11T00:55:39.837Z,12.90
2023-04-11T00:58:09.369Z,12.90
2023-04-11T01:00:36.284Z,13.00
2023-04-11T01:03:03.641Z,13.00
2023-04-11T01:08:19.119Z,13.10
2023-04-11T01:10:46.646Z,12.90
2023-04-11T01:13:16.124Z,12.70
2023-04-11T01:15:43.256Z,12.80
2023-04-11T01:18:10.968Z,12.80
2023-04-11T01:20:38.503Z,12.80
2023-04-11T01:23:06.373Z,12.90
2023-04-11T01:25:34.830Z,12.90
2023-04-11T01:28:03.215Z,12.80
2023-04-11T01:30:30.437Z,12.80
2023-04-11T01:32:57.531Z,12.80
2023-04-11T01:35:24.647Z,12.90
2023-04-11T01:37:52.391Z,12.80
2023-04-11T01:40:21.271Z,12.80
2023-04-11T01:42:51.999Z,12.80
2023-04-11T01:45:21.045Z,12.70
2023-04-11T01:47:50.726Z,12.60
2023-04-11T01:50:18.011Z,12.60
2023-04-11T01:52:45.658Z,12.60
2023-04-11T01:55:13.204Z,12.60
2023-04-11T01:57:40.210Z,12.60
2023-04-11T02:00:11.161Z,12.70
2023-04-11T02:02:38.454Z,12.60
2023-04-11T02:05:06.857Z,12.60
2023-04-11T02:07:34.408Z,12.60
2023-04-11T02:10:01.411Z,12.60
2023-04-11T02:12:28.947Z,12.70
2023-04-11T02:14:56.450Z,12.70
2023-04-11T02:17:26.309Z,12.70
2023-04-11T02:19:53.861Z,12.70
2023-04-11T02:22:20.798Z,12.70
2023-04-11T02:24:47.860Z,12.70
2023-04-11T02:27:14.985Z,12.60
2023-04-11T02:29:41.917Z,12.60
2023-04-11T02:32:08.978Z,12.60
2023-04-11T02:34:37.929Z,12.60
2023-04-11T02:37:06.159Z,12.60
2023-04-11T02:39:33.669Z,12.50
2023-04-11T02:42:00.836Z,12.50
2023-04-11T02:44:29.792Z,12.50
2023-04-11T02:46:58.714Z,12.50
2023-04-11T02:49:26.334Z,12.50
2023-04-11T02:51:54.629Z,12.50
2023-04-11T02:54:22.017Z,12.50
2023-04-11T02:56:48.985Z,12.50
2023-04-11T02:59:15.927Z,12.50
2023-04-11T03:01:42.917Z,12.40
2023-04-11T03:04:09.920Z,12.40
2023-04-11T03:06:36.973Z,12.30
2023-04-11T03:09:05.775Z,12.30
2023-04-11T03:11:32.726Z,12.30
2023-04-11T03:13:59.776Z,12.20
2023-04-11T03:16:28.200Z,12.20
2023-04-11T03:18:55.927Z,12.20
2023-04-11T03:21:22.988Z,12.30
2023-04-11T03:23:50.397Z,12.20
2023-04-11T03:26:19.147Z,12.20
2023-04-11T03:28:46.143Z,12.20
2023-04-11T03:31:13.470Z,12.10
2023-04-11T03:33:41.053Z,12.20
2023-04-11T03:36:08.933Z,12.20
2023-04-11T03:38:36.433Z,12.20
2023-04-11T03:41:03.750Z,12.20
2023-04-11T03:43:32.301Z,12.20
2023-04-11T03:45:59.275Z,12.20
2023-04-11T03:48:26.959Z,12.20
2023-04-11T03:50:54.016Z,12.10
2023-04-11T03:53:20.982Z,12.10
2023-04-11T03:55:53.223Z,12.10
2023-04-11T03:58:21.917Z,12.00
2023-04-11T04:00:50.266Z,12.00
2023-04-11T04:03:17.336Z,12.10
2023-04-11T04:05:45.071Z,12.10
2023-04-11T04:08:12.009Z,12.00
2023-04-11T04:10:39.059Z,12.00
2023-04-11T04:13:06.438Z,12.00
2023-04-11T04:15:33.905Z,12.00
2023-04-11T04:18:02.595Z,12.00
2023-04-11T04:20:29.566Z,11.90
2023-04-11T04:22:56.652Z,12.00
2023-04-11T04:25:25.894Z,12.00
2023-04-11T04:27:54.527Z,11.90
2023-04-11T04:30:22.031Z,11.90
2023-04-11T04:32:54.574Z,11.90
2023-04-11T04:35:23.777Z,11.80
2023-04-11T04:37:52.165Z,11.80
2023-04-11T04:40:20.697Z,11.80
2023-04-11T04:42:57.937Z,11.70
2023-04-11T04:45:26.085Z,11.60
2023-04-11T04:47:53.584Z,11.60
2023-04-11T04:50:22.885Z,11.70
2023-04-11T04:52:49.825Z,11.70
2023-04-11T04:55:17.650Z,11.70
2023-04-11T04:57:45.141Z,11.60
2023-04-11T05:00:13.676Z,11.60
2023-04-11T05:02:40.949Z,11.60
2023-04-11T05:05:08.702Z,11.60
2023-04-11T05:07:36.991Z,11.50
2023-04-11T05:10:04.640Z,11.50
2023-04-11T05:12:32.046Z,11.50
2023-04-11T05:14:58.950Z,11.50
2023-04-11T05:17:26.742Z,11.50
2023-04-11T05:19:53.657Z,11.60
2023-04-11T05:22:20.728Z,11.50
2023-04-11T05:24:49.052Z,11.50
2023-04-11T05:27:16.153Z,11.60
2023-04-11T05:29:43.101Z,11.60
2023-04-11T05:32:10.015Z,11.60
2023-04-11T05:34:52.213Z,11.70
2023-04-11T05:37:19.476Z,11.60
2023-04-11T05:39:48.491Z,11.60
2023-04-11T05:42:17.526Z,11.70
2023-04-11T05:44:44.951Z,11.70
2023-04-11T05:47:12.377Z,11.60
2023-04-11T05:49:39.373Z,11.60
2023-04-11T05:52:06.326Z,11.70
2023-04-11T05:54:35.130Z,11.60
2023-04-11T05:57:04.033Z,11.70
2023-04-11T05:59:32.504Z,11.70
2023-04-11T06:04:44.056Z,11.60
2023-04-11T06:07:11.847Z,11.60
2023-04-11T06:09:41.971Z,11.60
2023-04-11T06:12:10.737Z,11.70
2023-04-11T06:14:40.221Z,11.60
2023-04-11T06:17:07.694Z,11.70
2023-04-11T06:19:35.120Z,11.60
2023-04-11T06:22:02.082Z,11.60
2023-04-11T06:24:37.127Z,11.70
2023-04-11T06:27:04.662Z,11.70
2023-04-11T06:29:33.032Z,11.70
2023-04-11T06:32:00.057Z,11.70
2023-04-11T06:34:27.379Z,11.80
2023-04-11T06:36:54.465Z,11.80
2023-04-11T06:39:21.980Z,11.80
2023-04-11T06:41:49.184Z,11.80
2023-04-11T06:44:17.320Z,11.80
2023-04-11T06:46:46.512Z,11.90
2023-04-11T06:49:14.043Z,12.00
2023-04-11T06:51:41.251Z,12.00
2023-04-11T06:54:08.670Z,12.10
2023-04-11T06:56:37.010Z,12.20
2023-04-11T06:59:04.464Z,12.20
2023-04-11T07:01:35.594Z,12.20
2023-04-11T07:04:04.477Z,12.30
2023-04-11T07:06:31.666Z,12.20
2023-04-11T07:09:00.997Z,12.10
2023-04-11T07:11:29.053Z,12.20
2023-04-11T07:13:57.180Z,12.30
2023-04-11T07:16:24.893Z,12.40
2023-04-11T07:18:51.824Z,12.40
2023-04-11T07:21:20.954Z,12.40
2023-04-11T07:23:48.147Z,12.40
2023-04-11T07:26:17.316Z,12.50
2023-04-11T07:28:45.078Z,12.60
2023-04-11T07:31:13.740Z,12.80
2023-04-11T07:33:44.049Z,13.10
2023-04-11T07:36:11.585Z,13.50
2023-04-11T07:38:40.096Z,13.60
2023-04-11T07:41:08.990Z,13.70
2023-04-11T07:43:36.304Z,13.50
2023-04-11T07:46:04.028Z,13.40
2023-04-11T07:48:32.494Z,13.30
2023-04-11T07:50:59.496Z,13.30
2023-04-11T07:53:27.272Z,13.20
2023-04-11T07:55:55.632Z,12.70
2023-04-11T07:58:22.978Z,12.60
2023-04-11T08:00:51.289Z,12.40
2023-04-11T08:03:18.435Z,12.50
2023-04-11T08:05:46.054Z,12.50
2023-04-11T08:08:13.635Z,12.30
2023-04-11T08:10:41.130Z,12.30
2023-04-11T08:13:09.921Z,12.20
2023-04-11T08:15:39.167Z,12.10
2023-04-11T08:18:06.214Z,12.10
2023-04-11T08:20:33.714Z,12.30
2023-04-11T08:23:06.102Z,12.40
2023-04-11T08:28:19.820Z,12.30
2023-04-11T08:30:47.213Z,12.30
2023-04-11T08:33:15.214Z,12.30
2023-04-11T08:35:43.419Z,12.50
2023-04-11T08:38:11.121Z,12.50
2023-04-11T08:40:38.046Z,12.60
2023-04-11T08:43:12.458Z,12.80
2023-04-11T08:45:41.825Z,12.90
2023-04-11T08:48:12.061Z,12.70
2023-04-11T08:50:41.703Z,12.70
2023-04-11T08:53:09.674Z,12.80
2023-04-11T08:55:45.189Z,12.60
2023-04-11T08:58:12.775Z,12.70
2023-04-11T09:00:41.095Z,12.80
2023-04-11T09:03:10.858Z,12.70
2023-04-11T09:05:40.227Z,12.70
2023-04-11T09:08:09.129Z,12.70
2023-04-11T09:10:37.918Z,12.80
2023-04-11T09:13:23.596Z,12.80
2023-04-11T09:16:07.486Z,12.50
2023-04-11T09:18:37.042Z,12.50
2023-04-11T09:21:06.627Z,12.60
2023-04-11T09:23:34.338Z,12.70
2023-04-11T09:26:01.907Z,12.80
2023-04-11T09:28:40.252Z,12.90
2023-04-11T09:31:10.775Z,12.90
2023-04-11T09:33:38.172Z,13.10
2023-04-11T09:36:20.207Z,13.30
2023-04-11T09:38:47.250Z,13.20
2023-04-11T09:41:15.005Z,13.10
2023-04-11T09:43:51.180Z,13.10
2023-04-11T09:46:21.604Z,13.10
2023-04-11T09:48:49.423Z,13.10
2023-04-11T09:51:24.306Z,12.90
2023-04-11T09:53:56.458Z,13.10
2023-04-11T09:56:26.370Z,13.20
2023-04-11T09:58:54.858Z,13.30
2023-04-11T10:01:25.312Z,13.50
2023-04-11T10:03:53.086Z,13.70
2023-04-11T10:06:34.494Z,13.90
2023-04-11T10:09:11.590Z,14.10
2023-04-11T10:11:42.999Z,14.20
2023-04-11T10:14:10.753Z,14.30
2023-04-11T10:17:17.885Z,14.40
2023-04-11T10:19:49.355Z,14.40
2023-04-11T10:22:59.515Z,14.30
2023-04-11T10:25:27.251Z,14.50
2023-04-11T10:28:01.410Z,14.60
2023-04-11T10:31:00.888Z,14.60
2023-04-11T10:33:29.177Z,14.80
2023-04-11T10:36:00.215Z,14.70
2023-04-11T10:38:50.095Z,14.70
2023-04-11T10:41:28.716Z,14.80
2023-04-11T10:44:18.777Z,14.60
2023-04-11T10:46:52.471Z,14.50
2023-04-11T10:49:38.247Z,14.60
2023-04-11T10:52:22.552Z,14.60
2023-04-11T10:54:51.160Z,14.20
2023-04-11T10:57:18.782Z,14.10
2023-04-11T11:00:01.290Z,14.00
2023-04-11T11:02:39.655Z,14.00
2023-04-11T11:05:24.563Z,14.00
2023-04-11T11:07:53.885Z,14.00
2023-04-11T11:10:41.801Z,14.10
2023-04-11T11:13:10.203Z,14.00
2023-04-11T11:15:37.866Z,14.00
2023-04-11T11:18:10.231Z,13.80
2023-04-11T11:20:39.208Z,14.00
2023-04-11T11:23:08.806Z,14.10
2023-04-11T11:25:36.404Z,14.20
2023-04-11T11:28:05.948Z,14.20
2023-04-11T11:30:34.490Z,14.40
2023-04-11T11:33:16.347Z,14.50
2023-04-11T11:35:52.514Z,14.50
2023-04-11T11:38:20.836Z,14.30
2023-04-11T11:40:48.410Z,14.40
2023-04-11T11:43:16.445Z,14.40
2023-04-11T11:45:44.130Z,14.50
2023-04-11T11:48:21.812Z,14.60
2023-04-11T11:50:56.879Z,14.60
2023-04-11T11:53:25.936Z,14.60
2023-04-11T11:55:54.020Z,14.60
2023-04-11T11:58:21.883Z,14.40
2023-04-11T12:00:51.729Z,14.10
2023-04-11T12:03:23.215Z,14.00
2023-04-11T12:05:56.621Z,14.00
2023-04-11T12:08:24.927Z,14.00
2023-04-11T12:10:52.478Z,13.80
2023-04-11T12:13:26.614Z,13.50
2023-04-11T12:15:56.412Z,13.20
2023-04-11T12:18:27.477Z,13.10
2023-04-11T12:20:56.659Z,13.10
2023-04-11T12:23:23.722Z,13.20
2023-04-11T12:25:51.489Z,13.30
2023-04-11T12:28:18.533Z,13.50
2023-04-11T12:30:46.206Z,13.60
2023-04-11T12:33:18.123Z,13.60
2023-04-11T12:35:48.920Z,13.60
2023-04-11T12:38:18.560Z,13.80
2023-04-11T12:41:00.313Z,13.90
2023-04-11T12:43:32.192Z,14.00
2023-04-11T12:45:59.253Z,14.20
2023-04-11T12:48:27.933Z,14.20
2023-04-11T12:50:55.482Z,14.30
2023-04-11T12:53:25.104Z,14.40
2023-04-11T12:55:52.819Z,14.50
2023-04-11T12:58:20.718Z,14.60
2023-04-11T13:00:48.320Z,14.70
2023-04-11T13:03:16.296Z,14.70
2023-04-11T13:05:43.652Z,14.70
2023-04-11T13:08:14.120Z,14.70
2023-04-11T13:10:45.899Z,14.60
2023-04-11T13:15:44.300Z,14.80
2023-04-11T13:18:15.272Z,14.90
2023-04-11T13:20:49.500Z,14.90
2023-04-11T13:23:17.559Z,14.90
2023-04-11T13:25:49.763Z,15.00
2023-04-11T13:28:23.427Z,15.00
2023-04-11T13:30:51.046Z,15.00
2023-04-11T13:33:18.121Z,15.10
2023-04-11T13:35:45.787Z,15.10
2023-04-11T13:38:13.525Z,15.10
2023-04-11T13:40:45.890Z,15.00
2023-04-11T13:43:14.710Z,14.90
2023-04-11T13:45:42.770Z,14.90
2023-04-11T13:48:09.924Z,15.00
2023-04-11T13:50:40.642Z,15.00
2023-04-11T13:53:07.751Z,15.00
2023-04-11T13:55:38.269Z,15.00
2023-04-11T13:58:07.180Z,14.90
2023-04-11T14:00:36.357Z,14.90
2023-04-11T14:03:07.083Z,14.80
2023-04-11T14:05:35.592Z,14.70
2023-04-11T14:08:04.515Z,14.60
2023-04-11T14:10:33.122Z,14.50
2023-04-11T14:13:02.612Z,14.30
2023-04-11T14:15:35.347Z,14.00
2023-04-11T14:18:03.439Z,14.00
2023-04-11T14:20:30.719Z,14.10
2023-04-11T14:23:01.499Z,14.00
2023-04-11T14:25:28.475Z,13.90
2023-04-11T14:28:03.882Z,13.90
2023-04-11T14:30:31.927Z,13.90
2023-04-11T14:33:01.321Z,14.00
2023-04-11T14:35:34.988Z,14.00
2023-04-11T14:38:03.892Z,14.00
2023-04-11T14:40:31.506Z,14.10
2023-04-11T14:43:02.229Z,14.10
2023-04-11T14:45:32.592Z,14.20
2023-04-11T14:48:04.522Z,14.30
2023-04-11T14:50:32.832Z,14.30
2023-04-11T14:53:03.847Z,14.50
2023-04-11T14:55:33.614Z,14.50
2023-04-11T14:58:04.479Z,14.50
2023-04-11T15:00:32.612Z,14.70
2023-04-11T15:03:02.095Z,14.70
2023-04-11T15:05:29.405Z,14.80
2023-04-11T15:07:57.920Z,14.80
2023-04-11T15:10:26.940Z,14.80
2023-04-11T15:12:59.573Z,14.90
2023-04-11T15:15:27.225Z,14.90
2023-04-11T15:18:24.687Z,14.90
2023-04-11T15:20:52.772Z,15.00
2023-04-11T15:23:22.959Z,15.10
2023-04-11T15:25:54.525Z,15.10
2023-04-11T15:28:34.128Z,15.00
2023-04-11T15:31:03.141Z,14.90
2023-04-11T15:33:32.638Z,14.90
2023-04-11T15:36:03.783Z,14.90
2023-04-11T15:38:31.488Z,14.80
2023-04-11T15:41:00.355Z,14.70
2023-04-11T15:43:32.178Z,14.70
2023-04-11T15:46:04.337Z,14.70
2023-04-11T15:48:35.413Z,14.70
2023-04-11T15:51:11.873Z,14.70
2023-04-11T15:53:45.281Z,14.70
2023-04-11T15:56:14.452Z,14.80
2023-04-11T15:58:42.944Z,14.80
2023-04-11T16:01:22.790Z,14.70
2023-04-11T16:03:55.869Z,14.70
2023-04-11T16:06:23.519Z,14.70
2023-04-11T16:08:51.820Z,14.70
2023-04-11T16:11:19.868Z,14.70
2023-04-11T16:13:48.398Z,14.70
2023-04-11T16:16:15.918Z,14.70
2023-04-11T16:18:43.531Z,14.70
2023-04-11T16:21:16.012Z,14.70
2023-04-11T16:23:43.978Z,14.80
2023-04-11T16:26:11.054Z,14.70
2023-04-11T16:28:38.670Z,14.70
2023-04-11T16:31:07.290Z,14.50
2023-04-11T16:33:34.522Z,14.60
2023-04-11T16:36:04.503Z,14.60
2023-04-11T16:38:34.589Z,14.60
2023-04-11T16:41:03.291Z,14.50
2023-04-11T16:43:30.517Z,14.50
2023-04-11T16:45:58.378Z,14.50
2023-04-11T16:48:31.617Z,14.50
2023-04-11T16:50:59.913Z,14.50
2023-04-11T16:53:27.515Z,14.50
2023-04-11T16:55:57.127Z,14.50
2023-04-11T16:58:24.332Z,14.50
2023-04-11T17:00:53.142Z,14.50
2023-04-11T17:03:20.711Z,14.40
2023-04-11T17:05:48.592Z,14.40
2023-04-11T17:08:17.269Z,14.30
2023-04-11T17:10:51.416Z,14.30
2023-04-11T17:13:20.250Z,14.20
2023-04-11T17:15:47.947Z,14.20
2023-04-11T17:18:15.211Z,14.20
2023-04-11T17:20:43.928Z,14.20
2023-04-11T17:23:11.527Z,14.20
2023-04-11T17:25:45.040Z,14.20
2023-04-11T17:28:12.782Z,14.20
2023-04-11T17:30:45.694Z,14.20
2023-04-11T17:33:12.980Z,14.20
2023-04-11T17:35:40.353Z,14.20
2023-04-11T17:38:09.419Z,14.10
2023-04-11T17:40:36.598Z,14.20
2023-04-11T17:43:07.351Z,14.20
2023-04-11T17:45:34.961Z,14.20
2023-04-11T17:48:03.769Z,14.20
2023-04-11T17:50:31.407Z,14.10
2023-04-11T17:52:59.509Z,14.10
2023-04-11T17:55:33.174Z,14.10
2023-04-11T17:58:04.483Z,14.10
2023-04-11T18:00:34.985Z,14.00
2023-04-11T18:03:09.213Z,14.00
2023-04-11T18:05:37.166Z,14.00
2023-04-11T18:08:05.604Z,13.90
2023-04-11T18:10:33.398Z,13.90
2023-04-11T18:13:00.604Z,13.90
2023-04-11T18:15:31.452Z,13.80
2023-04-11T18:17:59.213Z,13.80
2023-04-11T18:20:31.698Z,13.70
2023-04-11T18:22:58.664Z,13.70
2023-04-11T18:25:26.478Z,13.70
2023-04-11T18:27:53.509Z,13.70
2023-04-11T18:30:20.525Z,13.70
2023-04-11T18:32:50.630Z,13.60
2023-04-11T18:35:18.185Z,13.60
2023-04-11T18:37:46.924Z,13.60
2023-04-11T18:40:15.534Z,13.60
2023-04-11T18:42:49.409Z,13.50
2023-04-11T18:45:18.356Z,13.50
2023-04-11T18:47:46.466Z,13.50
2023-04-11T18:53:05.029Z,13.50
2023-04-11T18:55:38.435Z,13.50
2023-04-11T18:58:09.214Z,13.40
2023-04-11T19:00:38.940Z,13.30
2023-04-11T19:03:14.733Z,13.20
2023-04-11T19:05:43.982Z,13.20
2023-04-11T19:08:13.890Z,13.20
2023-04-11T19:10:45.363Z,13.00
2023-04-11T19:13:12.509Z,12.80
2023-04-11T19:15:41.353Z,12.80
2023-04-11T19:18:09.451Z,12.70
2023-04-11T19:20:43.832Z,12.80
2023-04-11T19:23:12.045Z,12.80
2023-04-11T19:25:40.568Z,12.90
2023-04-11T19:28:10.839Z,12.90
2023-04-11T19:30:38.296Z,12.90
2023-04-11T19:33:05.681Z,12.70
2023-04-11T19:35:33.790Z,12.50
2023-04-11T19:38:08.360Z,12.40
2023-04-11T19:40:40.420Z,12.40
2023-04-11T19:43:11.283Z,12.50
2023-04-11T19:45:38.329Z,12.50
2023-04-11T19:48:06.162Z,12.40
2023-04-11T19:50:33.480Z,12.20
2023-04-11T19:53:02.134Z,12.20
2023-04-11T19:55:32.998Z,12.20
2023-04-11T19:58:05.336Z,12.40
2023-04-11T20:00:39.750Z,12.30
2023-04-11T20:03:09.646Z,12.30
2023-04-11T20:05:37.263Z,12.40
2023-04-11T20:08:08.437Z,12.40
2023-04-11T20:10:37.401Z,12.30
2023-04-11T20:13:06.243Z,12.20
2023-04-11T20:15:37.165Z,12.10
2023-04-11T20:18:05.135Z,12.20
2023-04-11T20:20:34.479Z,12.20
2023-04-11T20:23:05.583Z,12.20
2023-04-11T20:25:37.159Z,12.10
2023-04-11T20:28:08.625Z,12.10
2023-04-11T20:30:45.416Z,12.00
2023-04-11T20:33:12.976Z,12.10
2023-04-11T20:35:48.214Z,12.20
2023-04-11T20:38:17.609Z,12.10
2023-04-11T20:40:45.208Z,12.00
2023-04-11T20:43:13.817Z,11.90
2023-04-11T20:45:46.167Z,11.80
2023-04-11T20:48:13.645Z,11.90
2023-04-11T20:50:41.984Z,12.00
2023-04-11T20:53:09.093Z,11.80
2023-04-11T20:55:37.270Z,11.80
2023-04-11T20:58:09.122Z,11.80
2023-04-11T21:00:39.853Z,11.80
2023-04-11T21:03:11.426Z,11.60
2023-04-11T21:05:47.656Z,11.60
2023-04-11T21:08:14.761Z,11.70
2023-04-11T21:10:45.945Z,11.80
2023-04-11T21:13:13.420Z,11.80
2023-04-11T21:15:47.309Z,11.80
2023-04-11T21:18:16.848Z,11.90
2023-04-11T21:20:47.808Z,11.90
2023-04-11T21:23:22.228Z,11.90
2023-04-11T21:25:52.672Z,11.90
2023-04-11T21:28:20.982Z,11.90
2023-04-11T21:30:55.019Z,11.90
2023-04-11T21:33:26.286Z,12.00
2023-04-11T21:35:57.444Z,11.90
2023-04-11T21:38:27.617Z,11.80
2023-04-11T21:40:57.457Z,11.70
2023-04-11T21:43:28.495Z,11.60
2023-04-11T21:46:04.460Z,11.50
2023-04-11T21:48:32.756Z,11.50
2023-04-11T21:51:05.124Z,11.40
2023-04-11T21:53:36.692Z,11.30
2023-04-11T21:56:09.440Z,11.20
2023-04-11T21:58:40.983Z,11.10
2023-04-11T22:01:12.302Z,11.20
2023-04-11T22:03:46.557Z,11.30
2023-04-11T22:06:20.042Z,11.40
2023-04-11T22:08:51.919Z,11.20
2023-04-11T22:11:20.825Z,11.10
2023-04-11T22:13:48.770Z,11.10
2023-04-11T22:16:17.936Z,11.10
2023-04-11T22:18:49.604Z,11.10
2023-04-11T22:21:20.160Z,11.10
2023-04-11T22:23:56.614Z,11.00
2023-04-11T22:26:35.164Z,11.00
2023-04-11T22:29:06.899Z,10.90
2023-04-11T22:31:38.519Z,10.90
2023-04-11T22:34:13.597Z,11.00
2023-04-11T22:36:41.292Z,10.90
2023-04-11T22:39:09.513Z,11.00
2023-04-11T22:41:39.106Z,11.00
2023-04-11T22:44:07.160Z,11.10
2023-04-11T22:49:24.826Z,10.90
2023-04-11T22:52:00.289Z,10.80
2023-04-11T22:54:28.889Z,10.80
2023-04-11T22:56:57.389Z,10.70
2023-04-11T22:59:28.318Z,10.90
2023-04-11T23:01:59.851Z,11.00
2023-04-11T23:04:27.303Z,11.00
2023-04-11T23:06:58.307Z,10.90
2023-04-11T23:09:29.001Z,10.80
2023-04-11T23:11:59.383Z,10.90
2023-04-11T23:14:32.580Z,10.90
2023-04-11T23:17:01.691Z,11.00
2023-04-11T23:19:32.095Z,10.90
2023-04-11T23:22:00.321Z,10.90
2023-04-11T23:24:28.867Z,10.90
2023-04-11T23:26:57.002Z,10.90
2023-04-11T23:29:25.147Z,10.80
2023-04-11T23:31:55.073Z,10.80
2023-04-11T23:34:24.713Z,10.70
2023-04-11T23:36:51.703Z,10.70
2023-04-11T23:39:21.987Z,10.80
2023-04-11T23:41:49.039Z,10.90
2023-04-11T23:44:22.534Z,11.00
2023-04-11T23:46:49.588Z,11.00
2023-04-11T23:49:17.166Z,10.90
2023-04-11T23:51:45.860Z,10.80
2023-04-11T23:54:13.428Z,10.80
2023-04-11T23:56:41.035Z,10.90
2023-04-11T23:59:08.601Z,10.90
